Time;durP1;ratioP1;P1;durP2;ratioP2;P2;SDS_P1;SDS_P2;PMS_P1;PMS_P2;Temp;Humidity;BMP_temperature;BMP_pressure;BME280_temperature;BME280_humidity;BME280_pressure;Samples;Min_cycle;Max_cycle;Signal;HPM_P1;HPM_P2
2022/10/14 00:01:54;;;;;;;;;1.00;1.00;;;;;19.79;72.58;101025.66;4645669;28;2727405;-86
2022/10/14 00:04:20;;;;;;;;;1.50;1.00;;;;;19.72;73.18;101028.34;4646271;28;2726878;-74
2022/10/14 00:06:45;;;;;;;;;1.00;1.00;;;;;19.70;72.96;101028.28;4638465;28;2722154;-74
2022/10/14 00:09:11;;;;;;;;;0.50;0.50;;;;;19.70;73.31;101033.59;4625933;28;2724248;-74
2022/10/14 00:11:37;;;;;;;;;0.50;0.50;;;;;19.60;73.24;101013.28;4640631;28;2720086;-85
2022/10/14 00:14:10;;;;;;;;;0.00;0.00;;;;;19.76;74.37;101048.66;4638397;28;2724224;-73
2022/10/14 00:16:40;;;;;;;;;0.67;0.67;;;;;19.72;74.35;101038.94;4613663;28;2726329;-74
2022/10/14 00:19:06;;;;;;;;;2.00;1.00;;;;;19.70;75.00;101040.66;4638609;28;2725297;-75
2022/10/14 00:21:33;;;;;;;;;1.00;1.00;;;;;19.74;74.54;101043.34;4621006;28;2723242;-85
2022/10/14 00:24:01;;;;;;;;;1.00;1.00;;;;;19.54;74.76;101007.97;4637015;28;2724229;-86
2022/10/14 00:26:36;;;;;;;;;0.50;0.50;;;;;19.64;74.47;101025.66;4637322;28;2727361;-86
2022/10/14 00:29:08;;;;;;;;;0.60;0.60;;;;;19.74;74.82;101045.13;4654577;28;2727364;-79
2022/10/14 00:31:35;;;;;;;;;1.40;1.40;;;;;19.59;74.29;101016.78;4655716;28;2735746;-74
2022/10/14 00:34:01;;;;;;;;;0.00;0.00;;;;;19.59;74.88;101016.78;4638030;28;2721142;-86
2022/10/14 00:36:28;;;;;;;;;1.00;1.00;;;;;19.68;74.67;101038.88;4610825;28;2733571;-86
2022/10/14 00:38:57;;;;;;;;;1.00;0.00;;;;;19.49;74.97;101005.31;4636025;28;2731568;-86
2022/10/14 00:41:27;;;;;;;;;1.00;0.00;;;;;19.57;75.25;101039.75;4638720;28;2727394;-85
2022/10/14 00:44:11;;;;;;;;;1.00;1.00;;;;;19.59;75.01;101032.69;4619730;28;2726379;-77
2022/10/14 00:46:40;;;;;;;;;0.33;0.33;;;;;19.56;74.97;101030.06;4617663;28;2726352;-86
2022/10/14 00:49:29;;;;;;;;;0.00;0.00;;;;;19.49;74.72;101015.91;4638818;28;2726343;-85
2022/10/14 00:52:02;;;;;;;;;1.00;1.00;;;;;19.56;74.66;101027.41;4631792;28;2733690;-86
2022/10/14 00:54:33;;;;;;;;;1.00;1.00;;;;;19.61;74.52;101036.22;4618386;28;2725664;-86
2022/10/14 00:57:00;;;;;;;;;1.00;0.00;;;;;19.28;74.66;100977.91;4618461;28;2722180;-77
2022/10/14 00:59:28;;;;;;;;;1.80;1.00;;;;;19.28;74.87;100993.81;4656521;28;2725227;-74
2022/10/14 01:01:53;;;;;;;;;0.50;0.00;;;;;19.41;75.08;101018.53;4636157;28;2725357;-77
2022/10/14 01:04:20;;;;;;;;;0.00;0.00;;;;;19.49;74.67;101037.09;4642028;28;2722173;-79
2022/10/14 01:07:22;;;;;;;;;0.80;0.80;;;;;19.49;75.04;101037.09;4655085;28;2721083;-86
2022/10/14 01:10:14;;;;;;;;;0.00;0.00;;;;;19.48;74.98;101032.69;4603495;28;2725259;-76
2022/10/14 01:12:57;;;;;;;;;0.40;0.40;;;;;19.37;74.95;101018.53;4652071;28;2728398;-85
2022/10/14 01:15:45;;;;;;;;;0.00;0.00;;;;;19.27;75.03;101004.41;4654376;28;2727338;-75
2022/10/14 01:18:27;;;;;;;;;0.80;0.80;;;;;19.33;75.27;101025.59;4650536;28;2727390;-82
2022/10/14 01:21:14;;;;;;;;;1.00;1.00;;;;;19.27;75.15;101007.94;4638740;28;2715956;-74
2022/10/14 01:24:04;;;;;;;;;0.00;0.00;;;;;19.25;75.02;101004.38;4619942;28;2728402;-87
2022/10/14 01:26:33;;;;;;;;;0.00;0.00;;;;;19.39;75.01;101022.06;4617453;28;2727735;-75
2022/10/14 01:29:11;;;;;;;;;0.33;0.33;;;;;19.32;74.90;101012.34;4639861;28;2724225;-74
2022/10/14 01:31:45;;;;;;;;;0.60;0.60;;;;;19.42;74.64;101022.97;4656104;28;2727322;-74
2022/10/14 01:34:19;;;;;;;;;0.33;0.33;;;;;19.32;74.71;101000.00;4639060;28;2723198;-86
2022/10/14 01:36:55;;;;;;;;;0.33;0.33;;;;;19.37;74.51;101000.88;4637622;28;2726355;-75
2022/10/14 01:39:38;;;;;;;;;1.00;1.00;;;;;19.40;74.20;101002.66;4637754;28;2730510;-75
2022/10/14 01:42:13;;;;;;;;;1.00;0.67;;;;;19.45;74.47;101011.50;4637486;28;2726351;-74
2022/10/14 01:44:45;;;;;;;;;0.00;0.00;;;;;19.28;74.23;100964.69;4652792;28;2731485;-74
2022/10/14 01:47:15;;;;;;;;;1.00;1.00;;;;;19.37;73.89;100984.09;4637281;28;2729460;-74
2022/10/14 01:49:47;;;;;;;;;0.00;0.00;;;;;19.35;74.18;100981.44;4619306;28;2727385;-86
2022/10/14 01:52:26;;;;;;;;;0.80;0.80;;;;;19.35;73.76;100975.28;4640144;28;2724261;-75
2022/10/14 01:54:56;;;;;;;;;0.00;0.00;;;;;19.39;74.11;100987.63;4637328;28;2726811;-75
2022/10/14 01:57:28;;;;;;;;;0.00;0.00;;;;;19.46;73.97;100986.78;4619258;28;2725310;-74
2022/10/14 01:59:56;;;;;;;;;1.00;1.00;;;;;19.44;73.22;100973.53;4638566;28;2723596;-74
2022/10/14 02:02:23;;;;;;;;;1.67;1.00;;;;;19.29;73.71;100949.66;4653145;28;2729441;-74
2022/10/14 02:04:49;;;;;;;;;0.00;0.00;;;;;19.52;73.00;100981.47;4639384;28;2725297;-74
2022/10/14 02:07:25;;;;;;;;;1.00;1.00;;;;;19.52;73.63;100985.88;4616678;28;2726307;-75
2022/10/14 02:10:20;;;;;;;;;1.00;0.40;;;;;19.50;73.09;100971.72;4633455;28;2727314;-74
2022/10/14 02:12:57;;;;;;;;;0.00;0.00;;;;;19.53;73.52;100985.00;4637236;28;2727397;-74
2022/10/14 02:16:00;;;;;;;;;2.00;1.00;;;;;19.53;73.61;100985.88;4639935;28;2717990;-74
2022/10/14 02:18:47;;;;;;;;;1.50;1.00;;;;;19.45;73.29;100966.44;4621676;28;2726366;-75
2022/10/14 02:21:25;;;;;;;;;1.00;0.00;;;;;19.56;73.58;100985.88;4623844;28;2717980;-86
2022/10/14 02:24:08;;;;;;;;;1.00;1.00;;;;;19.44;73.31;100964.69;4621392;28;2725621;-74
2022/10/14 02:26:37;;;;;;;;;0.33;0.33;;;;;19.54;73.75;100965.59;4623389;28;2727358;-74
2022/10/14 02:29:04;;;;;;;;;1.00;1.00;;;;;19.51;73.80;100954.97;4640041;28;2727375;-74
2022/10/14 02:31:31;;;;;;;;;0.00;0.00;;;;;19.06;73.27;100879.03;4641172;28;2729461;-74
2022/10/14 02:34:03;;;;;;;;;0.00;0.00;;;;;19.53;73.26;100962.03;4639437;28;2719001;-74
2022/10/14 02:36:34;;;;;;;;;1.00;0.00;;;;;19.53;73.80;100951.41;4659647;28;2722114;-74
2022/10/14 02:39:02;;;;;;;;;0.33;0.33;;;;;19.56;73.13;100953.22;4637478;28;2729408;-86
2022/10/14 02:41:34;;;;;;;;;0.60;0.60;;;;;19.58;72.80;100960.28;4655657;28;2726324;-75
2022/10/14 02:44:01;;;;;;;;;1.00;0.00;;;;;19.55;73.12;100946.13;4641521;28;2724236;-86
2022/10/14 02:46:28;;;;;;;;;0.50;0.50;;;;;19.62;72.82;100948.78;4657292;28;2729496;-75
2022/10/14 02:48:54;;;;;;;;;1.00;0.67;;;;;19.56;73.04;100938.19;4620244;28;2731540;-75
2022/10/14 02:51:21;;;;;;;;;0.60;0.60;;;;;19.60;72.77;100947.03;4657505;28;2727357;-74
2022/10/14 02:53:47;;;;;;;;;0.00;0.00;;;;;19.63;73.14;100944.34;4646786;28;2729456;-74
2022/10/14 02:56:14;;;;;;;;;1.00;1.00;;;;;19.56;73.23;100937.31;4646290;28;2729409;-75
2022/10/14 02:58:41;;;;;;;;;1.00;1.00;;;;;19.55;73.19;100947.00;4656171;28;2728379;-75
2022/10/14 03:01:07;;;;;;;;;1.00;1.00;;;;;19.27;72.64;100894.03;4646262;28;2724300;-75
2022/10/14 03:03:35;;;;;;;;;0.00;0.00;;;;;19.59;72.92;100948.75;4661122;28;2724261;-74
2022/10/14 03:06:03;;;;;;;;;0.20;0.20;;;;;19.47;72.54;100930.22;4668029;28;2727695;-74
2022/10/14 03:08:29;;;;;;;;;1.00;1.00;;;;;19.37;72.64;100912.56;4642380;28;2727735;-74
2022/10/14 03:10:55;;;;;;;;;1.67;1.67;;;;;19.46;72.60;100931.13;4638716;28;2729488;-75
2022/10/14 03:13:21;;;;;;;;;1.00;1.00;;;;;19.41;73.12;100923.16;4640321;28;2731528;-75
2022/10/14 03:15:49;;;;;;;;;1.00;1.00;;;;;19.43;73.05;100924.03;4630546;28;2727350;-85
2022/10/14 03:18:15;;;;;;;;;1.67;1.00;;;;;19.53;72.65;100935.53;4639826;28;2725243;-74
2022/10/14 03:20:45;;;;;;;;;0.00;0.00;;;;;19.41;72.61;100911.69;4638847;28;2733603;-74
2022/10/14 03:23:13;;;;;;;;;0.50;0.50;;;;;19.56;72.76;100934.66;4639795;28;2727361;-74
2022/10/14 03:25:43;;;;;;;;;1.00;0.00;;;;;19.60;72.81;100939.94;4640308;28;2727718;-74
2022/10/14 03:28:10;;;;;;;;;0.00;0.00;;;;;19.55;72.86;100932.88;4638643;28;2726290;-75
2022/10/14 03:30:38;;;;;;;;;1.00;1.00;;;;;19.53;72.75;100937.31;4658013;28;2723298;-74
2022/10/14 03:33:05;;;;;;;;;0.40;0.40;;;;;19.16;72.75;100860.47;4653668;28;2727392;-74
2022/10/14 03:35:33;;;;;;;;;1.60;1.60;;;;;19.54;72.63;100924.06;4656708;28;2735655;-86
2022/10/14 03:38:01;;;;;;;;;2.00;1.00;;;;;19.59;73.02;100932.00;4617701;28;2727392;-74
2022/10/14 03:40:29;;;;;;;;;1.00;1.00;;;;;19.62;73.01;100926.69;4658673;28;2729433;-75
2022/10/14 03:42:59;;;;;;;;;3.00;1.60;;;;;19.62;72.85;100924.94;4654910;28;2737750;-74
2022/10/14 03:45:27;;;;;;;;;1.40;1.00;;;;;19.56;72.27;100913.47;4631878;28;2733600;-85
2022/10/14 03:47:55;;;;;;;;;2.20;2.20;;;;;19.53;72.50;100908.16;4656677;28;2724280;-74
2022/10/14 03:50:22;;;;;;;;;2.00;1.00;;;;;19.52;72.51;100911.66;4655211;28;2720078;-86
2022/10/14 03:52:48;;;;;;;;;2.00;1.00;;;;;19.55;72.68;100909.91;4645135;28;2728399;-74
2022/10/14 03:55:16;;;;;;;;;1.20;1.00;;;;;19.58;72.94;100911.69;4661382;28;2725262;-75
2022/10/14 03:57:44;;;;;;;;;1.80;1.60;;;;;19.58;72.37;100912.56;4662603;28;2735659;-74
2022/10/14 04:00:11;;;;;;;;;1.00;1.00;;;;;19.60;72.30;100912.56;4639536;28;2725313;-74
2022/10/14 04:02:39;;;;;;;;;1.00;1.00;;;;;19.57;72.31;100897.53;4633239;28;2722148;-74
2022/10/14 04:05:05;;;;;;;;;0.50;0.00;;;;;19.63;72.01;100909.91;4638030;28;2727374;-74
2022/10/14 04:07:32;;;;;;;;;1.00;1.00;;;;;19.62;72.18;100906.38;4635565;28;2725279;-75
2022/10/14 04:10:00;;;;;;;;;2.00;1.00;;;;;19.68;72.51;100916.97;4656459;28;2746147;-75
2022/10/14 04:12:27;;;;;;;;;0.00;0.00;;;;;19.62;72.47;100902.84;4638858;28;2727427;-74
2022/10/14 04:14:56;;;;;;;;;3.00;1.83;;;;;19.63;72.38;100908.13;4665403;28;2724239;-87
2022/10/14 04:17:23;;;;;;;;;1.00;1.00;;;;;19.55;72.07;100896.66;4640162;28;2725273;-85
2022/10/14 04:19:51;;;;;;;;;1.00;1.00;;;;;19.65;72.26;100901.06;4658372;28;2731492;-75
2022/10/14 04:22:19;;;;;;;;;1.00;1.00;;;;;19.67;71.69;100906.34;4654618;28;2722118;-75
2022/10/14 04:24:45;;;;;;;;;2.00;2.00;;;;;19.60;71.65;100894.03;4644601;28;2738143;-86
2022/10/14 04:27:10;;;;;;;;;2.00;2.00;;;;;19.65;72.07;100901.06;4642503;28;2739879;-74
2022/10/14 04:29:38;;;;;;;;;1.00;1.00;;;;;19.68;72.36;100909.00;4643264;28;2725687;-75
2022/10/14 04:32:06;;;;;;;;;3.80;3.00;;;;;19.65;72.29;100905.47;4658771;28;2734688;-75
2022/10/14 04:34:34;;;;;;;;;4.80;4.40;;;;;19.63;72.68;100905.47;4655197;28;2732612;-74
2022/10/14 04:36:59;;;;;;;;;1.00;1.00;;;;;19.66;72.32;100904.63;4620943;28;2729413;-86
2022/10/14 04:39:27;;;;;;;;;4.00;4.00;;;;;19.61;72.42;100901.94;4664586;28;2754439;-74
2022/10/14 04:41:55;;;;;;;;;2.80;2.40;;;;;19.66;72.40;100918.72;4640105;28;2733575;-86
2022/10/14 04:44:23;;;;;;;;;2.00;2.00;;;;;19.54;72.77;100889.59;4661611;28;2742266;-74
2022/10/14 04:46:51;;;;;;;;;3.40;3.40;;;;;19.59;72.74;100902.84;4636686;28;2733583;-75
2022/10/14 04:49:16;;;;;;;;;1.50;1.50;;;;;19.68;73.36;100924.91;4630459;28;2741948;-74
2022/10/14 04:51:44;;;;;;;;;4.33;3.67;;;;;19.46;72.97;100883.44;4641147;28;2752360;-87
2022/10/14 04:54:12;;;;;;;;;4.20;3.20;;;;;19.57;72.89;100910.78;4641580;28;2742997;-81
2022/10/14 04:56:38;;;;;;;;;2.00;1.50;;;;;19.58;72.60;100915.22;4644784;28;2738862;-74
2022/10/14 04:59:05;;;;;;;;;3.17;3.00;;;;;19.55;72.87;100901.09;4639785;28;2746134;-75
2022/10/14 05:01:38;;;;;;;;;1.20;1.20;;;;;19.63;73.63;100920.50;4636184;28;2731560;-74
2022/10/14 05:04:06;;;;;;;;;4.20;3.00;;;;;19.57;73.51;100908.13;4656316;28;2725354;-74
2022/10/14 05:06:32;;;;;;;;;2.00;2.00;;;;;19.57;73.60;100923.16;4640819;28;2738823;-74
2022/10/14 05:08:58;;;;;;;;;2.00;2.00;;;;;19.54;73.33;100908.16;4636334;28;2731528;-74
2022/10/14 05:11:25;;;;;;;;;2.00;2.00;;;;;19.07;73.39;100827.81;4634609;28;2733654;-82
2022/10/14 05:13:53;;;;;;;;;1.67;1.00;;;;;19.50;73.04;100898.44;4665310;28;2732569;-89
2022/10/14 05:16:21;;;;;;;;;4.00;3.40;;;;;19.50;73.10;100898.44;4663927;28;2744070;-74
2022/10/14 05:18:48;;;;;;;;;3.00;2.20;;;;;19.53;73.04;100911.69;4637321;28;2730503;-74
2022/10/14 05:21:18;;;;;;;;;2.00;2.00;;;;;19.53;73.16;100911.69;4664564;28;2741984;-86
2022/10/14 05:23:45;;;;;;;;;2.00;2.00;;;;;19.39;73.11;100881.66;4631315;28;2750289;-80
2022/10/14 05:26:13;;;;;;;;;1.17;1.17;;;;;19.32;73.30;100869.31;4642266;28;2724204;-77
2022/10/14 05:28:41;;;;;;;;;2.33;2.33;;;;;19.46;73.05;100889.63;4665088;28;2741900;-86
2022/10/14 05:31:09;;;;;;;;;2.80;2.00;;;;;19.45;73.15;100894.91;4656778;28;2741972;-81
2022/10/14 05:33:36;;;;;;;;;2.00;2.00;;;;;19.45;73.18;100893.13;4611040;28;2736768;-74
2022/10/14 05:36:03;;;;;;;;;2.80;2.80;;;;;19.46;72.94;100894.03;4654768;28;2730533;-73
2022/10/14 05:38:32;;;;;;;;;3.00;2.40;;;;;19.60;72.57;100917.88;4652326;28;2743335;-75
2022/10/14 05:41:00;;;;;;;;;1.00;1.00;;;;;19.56;72.52;100901.09;4630346;28;2733642;-74
2022/10/14 05:43:28;;;;;;;;;2.00;2.00;;;;;19.51;72.36;100892.25;4651863;28;2739888;-85
2022/10/14 05:45:54;;;;;;;;;2.00;2.00;;;;;19.54;72.47;100896.69;4648443;28;2736724;-85
2022/10/14 05:48:19;;;;;;;;;2.00;2.00;;;;;19.63;72.47;100907.25;4611952;28;2739853;-86
2022/10/14 05:50:48;;;;;;;;;2.67;2.17;;;;;19.33;72.79;100853.41;4645327;28;2748190;-86
2022/10/14 05:53:17;;;;;;;;;3.00;2.60;;;;;19.60;72.56;100904.63;4634088;28;2727318;-86
2022/10/14 05:55:45;;;;;;;;;2.00;1.20;;;;;19.61;72.50;100901.94;4657024;28;2728443;-85
2022/10/14 05:58:13;;;;;;;;;1.20;1.20;;;;;19.41;72.09;100864.00;4667413;28;2726339;-73
2022/10/14 06:00:40;;;;;;;;;2.40;1.60;;;;;19.42;72.41;100861.38;4661512;28;2736771;-86
2022/10/14 06:03:11;;;;;;;;;3.00;2.20;;;;;19.67;72.16;100907.22;4665712;28;2744071;-85
2022/10/14 06:05:39;;;;;;;;;2.00;1.40;;;;;19.62;72.50;100886.94;4635788;28;2744055;-86
2022/10/14 06:08:07;;;;;;;;;4.00;4.00;;;;;19.60;72.46;100886.94;4662058;28;2737818;-75
2022/10/14 06:10:35;;;;;;;;;3.60;2.00;;;;;19.65;72.18;100890.44;4656503;28;2733592;-75
2022/10/14 06:13:05;;;;;;;;;3.20;3.00;;;;;19.67;72.21;100896.63;4663755;28;2741951;-86
2022/10/14 06:15:34;;;;;;;;;3.40;3.00;;;;;19.60;72.38;100883.41;4653411;28;2740957;-78
2022/10/14 06:18:02;;;;;;;;;2.00;2.00;;;;;19.00;72.31;100780.16;4634143;28;2742309;-87
2022/10/14 06:20:30;;;;;;;;;2.00;2.00;;;;;19.67;72.92;100887.81;4653908;28;2741976;-86
2022/10/14 06:23:01;;;;;;;;;2.60;2.00;;;;;19.62;72.82;100877.22;4631215;28;2739857;-84
2022/10/14 06:25:28;;;;;;;;;5.00;4.00;;;;;19.63;72.53;100880.75;4613896;28;2744369;-85
2022/10/14 06:28:02;;;;;;;;;3.00;2.80;;;;;19.72;72.61;100887.84;4658114;28;2731524;-86
2022/10/14 06:30:28;;;;;;;;;2.00;2.00;;;;;19.53;72.36;100853.38;4637055;28;2746159;-85
2022/10/14 06:32:56;;;;;;;;;3.00;2.00;;;;;19.60;72.83;100863.09;4639566;28;2742302;-86
2022/10/14 06:35:24;;;;;;;;;1.40;1.40;;;;;19.69;72.99;100880.72;4638599;28;2727374;-86
2022/10/14 06:37:56;;;;;;;;;2.00;2.00;;;;;19.64;73.03;100870.16;4657336;28;2737762;-86
2022/10/14 06:40:26;;;;;;;;;2.20;1.80;;;;;19.74;72.92;100883.44;4658498;28;2738794;-87
2022/10/14 06:42:58;;;;;;;;;2.00;1.40;;;;;19.72;72.69;100886.06;4654243;28;2739857;-87
2022/10/14 06:45:25;;;;;;;;;2.00;2.00;;;;;19.75;72.07;100887.81;4656598;28;2727358;-85
2022/10/14 06:47:59;;;;;;;;;2.60;2.00;;;;;19.85;72.75;100902.81;4658584;28;2736727;-83
2022/10/14 06:50:25;;;;;;;;;3.00;3.00;;;;;19.87;72.53;100909.00;4638386;28;2737279;-85
2022/10/14 06:52:54;;;;;;;;;1.80;1.80;;;;;19.61;72.56;100869.28;4657608;28;2748158;-87
2022/10/14 06:55:23;;;;;;;;;1.40;1.40;;;;;19.80;72.53;100894.00;4632245;28;2744023;-86
2022/10/14 06:57:50;;;;;;;;;2.00;2.00;;;;;19.89;72.31;100904.56;4634594;28;2741928;-83
2022/10/14 07:00:17;;;;;;;;;2.60;2.40;;;;;19.96;72.07;100921.38;4656836;28;2730463;-87
2022/10/14 07:02:43;;;;;;;;;2.00;2.00;;;;;19.92;72.56;100907.22;4642834;28;2726315;-86
2022/10/14 07:05:13;;;;;;;;;3.00;3.00;;;;;19.89;72.77;100904.56;4656675;28;2728399;-78
2022/10/14 07:07:40;;;;;;;;;2.40;2.00;;;;;19.97;72.56;100917.81;4656148;28;2735734;-87
2022/10/14 07:10:09;;;;;;;;;3.40;2.00;;;;;19.95;72.36;100919.59;4666067;28;2725348;-88
2022/10/14 07:12:38;;;;;;;;;2.20;2.20;;;;;20.04;72.50;100933.72;4657501;28;2736736;-86
2022/10/14 07:15:07;;;;;;;;;3.40;3.40;;;;;19.98;72.42;100925.78;4659425;28;2744031;-75
2022/10/14 07:17:35;;;;;;;;;4.20;3.80;;;;;19.99;72.48;100922.22;4632301;28;2751392;-79
2022/10/14 07:20:03;;;;;;;;;1.80;1.80;;;;;19.94;72.41;100909.88;4632501;28;2737742;-87
2022/10/14 07:22:31;;;;;;;;;3.20;2.60;;;;;20.09;71.90;100933.69;4632003;28;2739869;-89
2022/10/14 07:24:58;;;;;;;;;1.60;1.00;;;;;20.02;71.78;100922.22;4638420;28;2725635;-76
2022/10/14 07:27:24;;;;;;;;;2.00;2.00;;;;;20.04;71.98;100933.72;4646167;28;2741964;-74
2022/10/14 07:29:51;;;;;;;;;1.00;1.00;;;;;20.09;71.77;100944.28;4644668;28;2725753;-73
2022/10/14 07:32:18;;;;;;;;;1.40;1.40;;;;;20.13;71.65;100927.47;4632232;28;2736707;-72
2022/10/14 07:34:46;;;;;;;;;3.00;3.00;;;;;20.35;71.43;100941.59;4666715;28;2727369;-75
2022/10/14 07:37:14;;;;;;;;;1.83;1.83;;;;;20.53;70.84;100948.56;4666799;28;2738776;-73
2022/10/14 07:39:41;;;;;;;;;2.00;2.00;;;;;20.62;70.96;100948.53;4636481;28;2744027;-73
2022/10/14 07:42:09;;;;;;;;;2.00;1.60;;;;;20.67;70.22;100948.50;4642179;28;2735687;-74
2022/10/14 07:44:38;;;;;;;;;6.00;5.00;;;;;20.69;70.37;100943.19;4663291;28;2722203;-75
2022/10/14 07:47:06;;;;;;;;;3.00;2.00;;;;;20.72;69.93;100938.75;4654703;28;2739947;-76
2022/10/14 07:49:32;;;;;;;;;0.00;0.00;;;;;20.80;69.84;100950.22;4638592;28;2704438;-76
2022/10/14 07:52:00;;;;;;;;;2.00;2.00;;;;;20.85;69.77;100939.59;4654383;28;2739909;-77
2022/10/14 07:54:31;;;;;;;;;2.00;2.00;;;;;20.93;69.60;100948.38;4642927;28;2741980;-75
2022/10/14 07:56:58;;;;;;;;;1.20;1.20;;;;;20.85;69.30;100936.94;4627649;28;2735715;-73
2022/10/14 07:59:26;;;;;;;;;1.60;1.60;;;;;20.94;69.14;100957.22;4662193;28;2744055;-75
2022/10/14 08:01:55;;;;;;;;;1.00;1.00;;;;;20.83;69.58;100951.97;4638632;28;2717310;-75
2022/10/14 08:04:23;;;;;;;;;2.00;1.60;;;;;20.79;69.33;100964.41;4656512;28;2733627;-75
2022/10/14 08:06:50;;;;;;;;;1.33;1.00;;;;;20.74;70.42;100965.31;4638040;28;2729471;-76
2022/10/14 08:09:18;;;;;;;;;2.20;2.00;;;;;20.76;71.44;100977.69;4654435;28;2745084;-76
2022/10/14 08:11:47;;;;;;;;;8.80;8.60;;;;;20.74;72.10;101000.69;4628826;28;2762784;-75
2022/10/14 08:14:13;;;;;;;;;2.33;2.33;;;;;20.60;72.09;100981.31;4611559;28;2746103;-73
2022/10/14 08:16:41;;;;;;;;;2.00;2.00;;;;;20.54;72.39;100978.66;4655422;28;2726367;-72
2022/10/14 08:19:10;;;;;;;;;2.00;2.00;;;;;20.58;72.63;101001.63;4664648;28;2733607;-72
2022/10/14 08:21:37;;;;;;;;;3.00;2.00;;;;;20.55;72.68;100998.97;4655723;28;2753478;-74
2022/10/14 08:24:05;;;;;;;;;2.80;2.60;;;;;20.51;73.30;100992.78;4641537;28;2730486;-72
2022/10/14 08:26:36;;;;;;;;;2.40;1.80;;;;;20.57;72.67;101006.06;4659135;28;2750273;-73
2022/10/14 08:29:05;;;;;;;;;2.80;2.80;;;;;20.60;72.83;101007.84;4631396;28;2745060;-73
2022/10/14 08:31:33;;;;;;;;;4.80;3.80;;;;;20.62;73.68;101014.91;4629321;28;2743030;-72
2022/10/14 08:34:09;;;;;;;;;2.00;2.00;;;;;20.54;73.68;101005.19;5108020;27;45827;-72
2022/10/14 08:36:35;;;;;;;;;3.00;2.67;;;;;20.62;73.62;101014.03;5093873;27;45499;-73
2022/10/14 08:39:01;;;;;;;;;2.00;2.00;;;;;20.65;73.18;101009.59;5094179;27;45470;-73
2022/10/14 08:41:59;;;;;;;;;2.33;2.00;;;;;20.73;72.86;101016.63;5094442;27;45293;-73
2022/10/14 08:44:40;;;;;;;;;3.00;3.00;;;;;20.69;72.34;101001.59;5092510;27;45479;-73
2022/10/14 08:47:14;;;;;;;;;2.67;2.00;;;;;20.68;72.96;101019.31;5094407;27;45440;-72
2022/10/14 08:50:02;;;;;;;;;2.00;2.00;;;;;20.72;73.20;101021.06;5093950;27;45474;-73
2022/10/14 08:52:37;;;;;;;;;2.67;2.00;;;;;20.76;72.90;101019.28;5092737;27;45477;-73
2022/10/14 08:55:26;;;;;;;;;3.00;3.00;;;;;20.58;72.61;100986.59;5093446;27;46075;-73
2022/10/14 08:58:06;;;;;;;;;2.00;2.00;;;;;20.79;72.33;101019.25;5093409;27;45505;-72
2022/10/14 09:00:33;;;;;;;;;2.00;2.00;;;;;20.79;71.89;101016.59;5091962;27;45547;-72
2022/10/14 09:03:09;;;;;;;;;2.00;2.00;;;;;20.76;71.64;101013.97;5093944;27;45503;-72
2022/10/14 09:05:38;;;;;;;;;3.00;2.00;;;;;20.74;71.61;101011.31;5093541;27;45475;-73
2022/10/14 09:08:07;;;;;;;;;1.00;1.00;;;;;20.79;71.71;101020.16;5093735;27;45396;-72
2022/10/14 09:10:38;;;;;;;;;2.00;2.00;;;;;20.77;71.31;101006.00;5093856;27;45425;-72
2022/10/14 09:13:30;;;;;;;;;1.00;1.00;;;;;20.99;70.95;101013.84;5093900;27;45357;-72
2022/10/14 09:16:02;;;;;;;;;1.00;1.00;;;;;21.09;70.90;101007.63;5093095;27;46505;-73
2022/10/14 09:18:42;;;;;;;;;1.33;1.33;;;;;21.12;70.69;101010.22;5093520;27;45230;-72
2022/10/14 09:21:46;;;;;;;;;1.00;1.00;;;;;21.17;70.48;101002.22;5093475;27;45397;-72
2022/10/14 09:24:18;;;;;;;;;1.00;1.00;;;;;21.40;69.64;101024.22;5072979;28;45529;-72
2022/10/14 09:26:51;;;;;;;;;1.33;1.00;;;;;21.45;70.05;101014.47;5071169;28;47733;-73
2022/10/14 09:29:27;;;;;;;;;2.00;1.33;;;;;21.49;69.42;101018.00;5072875;28;45683;-72
2022/10/14 09:31:57;;;;;;;;;1.67;1.00;;;;;21.42;69.39;100976.38;5071374;28;45433;-73
2022/10/14 09:34:50;;;;;;;;;0.67;0.67;;;;;21.77;68.59;101001.81;5071897;28;45497;-72
2022/10/14 09:37:22;;;;;;;;;1.00;1.00;;;;;21.94;68.26;101014.94;5086501;27;45678;-72
2022/10/14 09:39:49;;;;;;;;;0.00;0.00;;;;;21.84;67.79;100992.88;5072540;28;45465;-73
2022/10/14 09:42:20;;;;;;;;;0.00;0.00;;;;;21.97;68.04;101001.63;5078950;27;45343;-72
2022/10/14 09:45:04;;;;;;;;;1.00;0.00;;;;;22.17;67.24;101012.94;5082085;27;45562;-73
2022/10/14 09:47:31;;;;;;;;;0.00;0.00;;;;;22.26;66.84;100988.03;5079386;27;46446;-73
2022/10/14 09:49:59;;;;;;;;;0.00;0.00;;;;;22.42;66.62;100986.97;5078809;27;45426;-74
2022/10/14 09:52:28;;;;;;;;;1.00;0.00;;;;;22.61;66.45;100995.59;5078148;27;45586;-72
2022/10/14 09:54:57;;;;;;;;;0.00;0.00;;;;;22.87;65.34;101007.72;5078467;28;45623;-72
2022/10/14 09:57:24;;;;;;;;;0.00;0.00;;;;;22.90;65.05;100997.03;5076609;28;45463;-76
2022/10/14 09:59:55;;;;;;;;;0.00;0.00;;;;;23.05;64.31;101011.94;5079287;27;45357;-72
2022/10/14 10:02:43;;;;;;;;;0.33;0.00;;;;;23.29;64.24;100999.16;5078460;28;45535;-74
2022/10/14 10:05:12;;;;;;;;;0.00;0.00;;;;;23.36;64.03;100996.38;5076001;28;45376;-72
2022/10/14 10:07:38;;;;;;;;;1.00;0.00;;;;;23.41;63.60;100986.50;5077715;27;45636;-77
2022/10/14 10:10:24;;;;;;;;;1.00;0.00;;;;;23.43;62.85;100991.81;5076602;28;46108;-71
2022/10/14 10:12:49;;;;;;;;;0.00;0.00;;;;;23.24;62.74;100969.91;5077819;27;45524;-71
2022/10/14 10:15:22;;;;;;;;;1.00;0.00;;;;;23.35;63.05;100994.59;5078242;27;45484;-71
2022/10/14 10:17:49;;;;;;;;;0.00;0.00;;;;;23.32;62.63;100975.13;5077495;27;46759;-72
2022/10/14 10:20:27;;;;;;;;;0.67;0.67;;;;;23.41;62.70;100986.50;5077987;28;45455;-74
2022/10/14 10:22:54;;;;;;;;;0.00;0.00;;;;;23.45;62.92;100989.13;5076636;28;45500;-73
2022/10/14 10:25:27;;;;;;;;;0.00;0.00;;;;;23.38;62.01;100983.03;5077064;28;45625;-73
2022/10/14 10:27:56;;;;;;;;;1.00;1.00;;;;;23.27;62.99;100950.31;5078491;27;45465;-74
2022/10/14 10:30:28;;;;;;;;;0.00;0.00;;;;;23.54;61.92;100979.19;5078823;28;45349;-73
2022/10/14 10:33:18;;;;;;;;;0.00;0.00;;;;;23.73;62.05;100985.06;5077618;28;45424;-73
2022/10/14 10:36:16;;;;;;;;;0.00;0.00;;;;;23.71;61.31;100946.00;5078556;27;45461;-75
2022/10/14 10:38:45;;;;;;;;;0.00;0.00;;;;;24.11;59.90;100975.53;5077645;28;45457;-74
2022/10/14 10:41:22;;;;;;;;;1.67;1.00;;;;;24.33;59.91;100970.66;5076709;28;45421;-73
2022/10/14 10:44:08;;;;;;;;;0.00;0.00;;;;;24.50;59.93;100972.09;5078180;27;45538;-73
2022/10/14 10:47:01;;;;;;;;;0.33;0.33;;;;;24.78;58.60;100967.06;5092499;27;45523;-73
2022/10/14 10:50:07;;;;;;;;;1.00;1.00;;;;;24.93;58.23;100961.38;5058181;28;46642;-73
2022/10/14 10:53:06;;;;;;;;;1.00;1.00;;;;;25.07;56.71;100966.41;5073769;28;45510;-73
2022/10/14 10:55:55;;;;;;;;;0.67;0.00;;;;;25.11;56.74;100946.72;5057493;28;45561;-73
2022/10/14 10:58:43;;;;;;;;;0.00;0.00;;;;;25.21;55.87;100955.41;5074399;28;45508;-73
2022/10/14 11:01:35;;;;;;;;;0.00;0.00;;;;;25.48;55.66;100948.50;5058144;28;46454;-72
2022/10/14 11:04:16;;;;;;;;;0.00;0.00;;;;;25.76;54.00;100953.13;5058279;28;45385;-73
2022/10/14 11:12:58;;;;;;;;;0.00;0.00;;;;;26.68;52.30;100939.88;5058184;28;45814;-73
2022/10/14 11:15:39;;;;;;;;;0.00;0.00;;;;;26.85;50.66;100943.81;5056708;28;45560;-72
2022/10/14 11:18:31;;;;;;;;;1.00;0.00;;;;;27.05;50.39;100937.81;5057986;28;45314;-73
2022/10/14 11:21:05;;;;;;;;;0.00;0.00;;;;;27.14;49.29;100916.09;5073916;28;45575;-73
2022/10/14 11:23:47;;;;;;;;;0.00;0.00;;;;;27.37;49.32;100934.09;5057638;28;45322;-73
2022/10/14 11:26:31;;;;;;;;;0.00;0.00;;;;;27.44;49.18;100927.63;5058086;28;45445;-73
2022/10/14 11:29:21;;;;;;;;;1.00;1.00;;;;;27.51;48.30;100922.91;5057881;28;45327;-73
2022/10/14 11:32:03;;;;;;;;;0.67;0.33;;;;;27.54;47.99;100904.91;5058273;28;45363;-73
2022/10/14 11:34:58;;;;;;;;;0.00;0.00;;;;;27.67;48.46;100920.56;5057620;28;46670;-73
2022/10/14 11:37:38;;;;;;;;;0.00;0.00;;;;;27.80;47.71;100897.72;5057956;28;45360;-73
2022/10/14 11:40:07;;;;;;;;;0.00;0.00;;;;;28.05;46.30;100904.91;5057621;28;45398;-73
2022/10/14 11:43:05;;;;;;;;;0.00;0.00;;;;;27.98;46.70;100904.25;5057856;28;45454;-73